Time;durP1;ratioP1;P1;durP2;ratioP2;P2;SDS_P1;SDS_P2;PMS_P1;PMS_P2;Temp;Humidity;BMP_temperature;BMP_pressure;BME280_temperature;BME280_humidity;BME280_pressure;Samples;Min_cycle;Max_cycle;Signal;HPM_P1;HPM_P2
2023/07/16 00:02:10;;;;;;;3.87;3.77;;;18.50;99.90;;;;;;5025613;28;20547;-66
2023/07/16 00:04:39;;;;;;;3.40;3.30;;;18.50;99.90;;;;;;5029336;28;20441;-66
2023/07/16 00:07:06;;;;;;;3.70;3.60;;;18.30;99.90;;;;;;5019962;28;20471;-67
2023/07/16 00:09:33;;;;;;;3.70;3.60;;;18.20;99.90;;;;;;5026323;28;20465;-66
2023/07/16 00:12:00;;;;;;;3.70;3.60;;;18.10;99.90;;;;;;5027302;28;20468;-66
2023/07/16 00:14:27;;;;;;;3.67;3.57;;;18.00;99.90;;;;;;5026536;28;20492;-67
2023/07/16 00:16:54;;;;;;;3.70;3.60;;;17.90;99.90;;;;;;5022356;28;20500;-65
2023/07/16 00:19:21;;;;;;;3.87;3.77;;;17.80;99.90;;;;;;5026661;28;20473;-65
2023/07/16 00:21:51;;;;;;;4.10;4.00;;;17.70;99.90;;;;;;5026812;28;20513;-67
2023/07/16 00:24:18;;;;;;;4.10;4.00;;;17.60;99.90;;;;;;5021348;28;20893;-67
2023/07/16 00:26:45;;;;;;;4.10;4.00;;;17.60;99.90;;;;;;5025903;28;20523;-67
2023/07/16 00:29:12;;;;;;;3.73;3.63;;;17.50;99.90;;;;;;5027640;28;20461;-66
2023/07/16 00:31:39;;;;;;;3.60;3.50;;;17.40;99.90;;;;;;5024195;28;20491;-67
2023/07/16 00:34:07;;;;;;;4.20;4.10;;;17.40;99.90;;;;;;5026036;28;20461;-66
2023/07/16 00:36:34;;;;;;;3.20;3.10;;;17.30;99.90;;;;;;5024958;28;20963;-67
2023/07/16 00:39:03;;;;;;;3.27;3.17;;;17.30;99.90;;;;;;5027886;28;20971;-66
2023/07/16 00:41:30;;;;;;;3.70;3.60;;;17.40;99.90;;;;;;5026653;28;20467;-66
2023/07/16 00:43:57;;;;;;;3.60;3.50;;;17.30;99.90;;;;;;5027983;28;20511;-65
2023/07/16 00:46:25;;;;;;;3.43;3.33;;;17.30;99.90;;;;;;5021312;28;20807;-65
2023/07/16 00:48:53;;;;;;;3.87;3.77;;;17.20;99.90;;;;;;5019763;28;20529;-67
2023/07/16 00:51:23;;;;;;;3.63;3.53;;;17.20;99.90;;;;;;5025496;28;20460;-65
2023/07/16 00:53:50;;;;;;;3.60;3.50;;;17.20;99.90;;;;;;5022431;28;20560;-65
2023/07/16 00:56:20;;;;;;;3.13;3.03;;;17.10;99.90;;;;;;5025509;28;20481;-67
2023/07/16 00:58:47;;;;;;;3.03;2.93;;;17.20;99.90;;;;;;5029313;28;20818;-67
2023/07/16 01:01:14;;;;;;;3.03;2.93;;;17.20;99.90;;;;;;5023740;28;20468;-66
2023/07/16 01:03:41;;;;;;;2.97;2.87;;;17.20;99.90;;;;;;5027524;28;20484;-66
2023/07/16 01:06:15;;;;;;;3.27;3.17;;;17.20;99.90;;;;;;5023024;28;20468;-67
2023/07/16 01:08:45;;;;;;;3.20;3.10;;;17.20;99.90;;;;;;5025856;28;20520;-67
2023/07/16 01:11:15;;;;;;;3.60;3.50;;;17.10;99.90;;;;;;5023525;28;20572;-67
2023/07/16 01:13:45;;;;;;;3.37;3.27;;;17.10;99.90;;;;;;5011709;28;20461;-65
2023/07/16 01:16:20;;;;;;;3.10;3.00;;;17.10;99.90;;;;;;5018970;28;20489;-66
2023/07/16 01:18:47;;;;;;;3.00;2.90;;;17.00;99.90;;;;;;5013706;28;20551;-65
2023/07/16 01:21:14;;;;;;;3.07;2.97;;;17.10;99.90;;;;;;5024522;28;20460;-66
2023/07/16 01:24:00;;;;;;;3.10;3.00;;;17.00;99.90;;;;;;5020891;28;20520;-65
2023/07/16 01:27:11;;;;;;;3.00;2.90;;;17.00;99.90;;;;;;5022509;28;20469;-65
2023/07/16 01:29:42;;;;;;;5.37;3.53;;;17.10;99.90;;;;;;4996408;28;20466;-65
2023/07/16 01:32:12;;;;;;;3.30;2.83;;;17.10;99.90;;;;;;5025864;28;21221;-66
2023/07/16 01:34:40;;;;;;;2.87;2.77;;;17.10;99.90;;;;;;5019340;28;20551;-65
2023/07/16 01:37:09;;;;;;;2.70;2.60;;;17.00;99.90;;;;;;5024284;28;20496;-65
2023/07/16 01:39:36;;;;;;;3.27;2.90;;;17.00;99.90;;;;;;5028559;28;20476;-66
2023/07/16 01:42:03;;;;;;;3.40;3.30;;;17.00;99.90;;;;;;5028502;28;20461;-66
2023/07/16 01:44:30;;;;;;;3.23;3.13;;;17.10;99.90;;;;;;5021591;28;20461;-66
2023/07/16 01:47:07;;;;;;;3.23;3.13;;;17.10;99.90;;;;;;5021560;28;20461;-66
2023/07/16 01:49:35;;;;;;;3.03;2.93;;;17.10;99.90;;;;;;5025213;28;20931;-66
2023/07/16 01:52:03;;;;;;;3.20;3.10;;;17.10;99.90;;;;;;5025543;28;20466;-67
2023/07/16 01:54:30;;;;;;;8.63;3.77;;;17.10;99.90;;;;;;5021299;28;20560;-66
2023/07/16 01:56:57;;;;;;;3.30;3.20;;;17.10;99.90;;;;;;5028391;28;20484;-67
2023/07/16 01:59:24;;;;;;;3.17;3.07;;;17.10;99.90;;;;;;5012819;28;20483;-66
2023/07/16 02:01:51;;;;;;;3.13;3.03;;;17.10;99.90;;;;;;5027226;28;20511;-66
2023/07/16 02:04:22;;;;;;;4.03;3.93;;;17.10;99.90;;;;;;5020334;28;20557;-66
2023/07/16 02:06:49;;;;;;;3.50;3.40;;;17.10;99.90;;;;;;5022067;28;21181;-67
2023/07/16 02:09:16;;;;;;;3.60;3.50;;;17.10;99.90;;;;;;5015015;28;20469;-66
2023/07/16 02:11:43;;;;;;;4.13;4.03;;;17.10;99.90;;;;;;5015672;28;20470;-65
2023/07/16 02:14:10;;;;;;;3.60;3.50;;;17.10;99.90;;;;;;5028194;28;20973;-66
2023/07/16 02:16:37;;;;;;;3.80;3.70;;;17.00;99.90;;;;;;5017790;28;20603;-66
2023/07/16 02:19:05;;;;;;;5.43;4.90;;;17.00;99.90;;;;;;5025450;28;20514;-66
2023/07/16 02:21:33;;;;;;;6.50;5.00;;;17.00;99.90;;;;;;5016545;28;20805;-66
2023/07/16 02:24:02;;;;;;;4.30;4.10;;;17.00;99.90;;;;;;5031278;28;20468;-65
2023/07/16 02:26:29;;;;;;;4.00;3.90;;;17.00;99.90;;;;;;5029136;28;20815;-65
2023/07/16 02:28:57;;;;;;;5.50;5.30;;;17.00;99.90;;;;;;5027419;28;20469;-65
2023/07/16 02:31:25;;;;;;;4.80;4.60;;;17.00;99.90;;;;;;5026903;28;20472;-66
2023/07/16 02:33:51;;;;;;;6.33;5.93;;;16.90;99.90;;;;;;5025569;28;20883;-65
2023/07/16 02:36:18;;;;;;;5.00;4.90;;;16.90;99.90;;;;;;5029658;28;20484;-66
2023/07/16 02:38:47;;;;;;;5.17;5.07;;;16.80;99.90;;;;;;5028127;28;20470;-66
2023/07/16 02:41:14;;;;;;;5.30;5.10;;;16.90;99.90;;;;;;5028573;28;20464;-66
2023/07/16 02:43:40;;;;;;;5.00;4.90;;;16.80;99.90;;;;;;5026310;28;20473;-65
2023/07/16 02:46:08;;;;;;;5.03;4.93;;;16.80;99.90;;;;;;5031502;28;20464;-66
2023/07/16 02:48:35;;;;;;;6.23;5.73;;;16.80;99.90;;;;;;5031395;28;20457;-67
2023/07/16 02:51:02;;;;;;;5.50;5.30;;;16.70;99.90;;;;;;5027722;28;20519;-64
2023/07/16 02:53:29;;;;;;;5.60;5.40;;;16.70;99.90;;;;;;5024171;28;20468;-65
2023/07/16 02:55:59;;;;;;;7.20;6.90;;;16.70;99.90;;;;;;5026019;28;20842;-67
2023/07/16 02:58:27;;;;;;;6.57;6.30;;;16.70;99.90;;;;;;5029473;28;20473;-66
2023/07/16 03:00:54;;;;;;;6.50;6.30;;;16.70;99.90;;;;;;5028904;28;20515;-65
2023/07/16 03:03:22;;;;;;;7.13;6.80;;;16.70;99.90;;;;;;5030321;28;20460;-65
2023/07/16 03:05:49;;;;;;;6.30;6.07;;;16.70;99.90;;;;;;5023487;28;20468;-67
2023/07/16 03:08:17;;;;;;;9.00;7.50;;;16.60;99.90;;;;;;5031036;28;20543;-65
2023/07/16 03:10:43;;;;;;;6.83;6.50;;;16.60;99.90;;;;;;5026733;28;20464;-65
2023/07/16 03:13:12;;;;;;;7.30;7.00;;;16.60;99.90;;;;;;5028395;28;20943;-66
2023/07/16 03:15:39;;;;;;;7.03;6.83;;;16.50;99.90;;;;;;5030055;28;20491;-65
2023/07/16 03:18:07;;;;;;;7.43;7.03;;;16.50;99.90;;;;;;5029469;28;20579;-65
2023/07/16 03:20:33;;;;;;;6.80;6.60;;;16.50;99.90;;;;;;5025364;28;20991;-65
2023/07/16 03:23:00;;;;;;;6.60;6.40;;;16.40;99.90;;;;;;5024716;28;20464;-67
2023/07/16 03:25:27;;;;;;;6.53;6.33;;;16.40;99.90;;;;;;5029439;28;20464;-67
2023/07/16 03:27:54;;;;;;;6.80;6.50;;;16.40;99.90;;;;;;5027209;28;20547;-65
2023/07/16 03:30:23;;;;;;;8.53;7.90;;;16.40;99.90;;;;;;5020962;28;20487;-66
2023/07/16 03:32:51;;;;;;;8.00;7.40;;;16.40;99.90;;;;;;5024760;28;20464;-66
2023/07/16 03:35:18;;;;;;;6.90;6.70;;;16.40;99.90;;;;;;5028716;28;20467;-66
2023/07/16 03:37:45;;;;;;;7.00;6.80;;;16.40;99.90;;;;;;5029142;28;20554;-66
2023/07/16 03:40:17;;;;;;;7.93;7.63;;;16.40;99.90;;;;;;5022584;28;20457;-66
2023/07/16 03:42:44;;;;;;;8.77;8.17;;;16.40;99.90;;;;;;5023843;28;20558;-66
2023/07/16 03:45:12;;;;;;;7.70;7.30;;;16.40;99.90;;;;;;5029070;28;20544;-66
2023/07/16 03:47:40;;;;;;;7.63;7.33;;;16.30;99.90;;;;;;5027826;28;20469;-67
2023/07/16 03:50:08;;;;;;;8.27;7.77;;;16.30;99.90;;;;;;5021464;28;20460;-65
2023/07/16 03:52:36;;;;;;;7.30;7.10;;;16.30;99.90;;;;;;5028156;28;20460;-67
2023/07/16 03:55:03;;;;;;;7.40;7.20;;;16.30;99.90;;;;;;5025634;28;20970;-66
2023/07/16 03:57:30;;;;;;;7.70;7.40;;;16.30;99.90;;;;;;5028972;28;20516;-66
2023/07/16 03:59:57;;;;;;;44.93;9.63;;;16.30;99.90;;;;;;5024537;28;20840;-67
2023/07/16 04:02:26;;;;;;;9.30;8.70;;;16.30;99.90;;;;;;5023004;28;20955;-65
2023/07/16 04:04:56;;;;;;;8.73;8.23;;;16.30;99.90;;;;;;5024358;28;20552;-65
2023/07/16 04:07:23;;;;;;;7.53;7.33;;;16.30;99.90;;;;;;5024116;28;20480;-66
2023/07/16 04:09:50;;;;;;;9.17;8.73;;;16.30;99.90;;;;;;5023969;28;20845;-65
2023/07/16 04:12:17;;;;;;;8.40;8.10;;;16.30;99.90;;;;;;5025133;28;20465;-66
2023/07/16 04:14:44;;;;;;;17.03;7.37;;;16.30;99.90;;;;;;4992767;28;1041231;-66
2023/07/16 04:17:11;;;;;;;7.87;7.53;;;16.30;99.90;;;;;;5022103;28;20496;-65
2023/07/16 04:19:37;;;;;;;7.73;7.43;;;16.30;99.90;;;;;;5024388;28;20491;-66
2023/07/16 04:22:06;;;;;;;7.37;7.17;;;16.30;99.90;;;;;;5029391;28;20465;-66
2023/07/16 04:24:33;;;;;;;8.87;8.37;;;16.30;99.90;;;;;;5028214;28;20472;-65
2023/07/16 04:27:00;;;;;;;7.30;7.10;;;16.40;99.90;;;;;;5029355;28;20560;-66
2023/07/16 04:29:27;;;;;;;7.30;7.10;;;16.40;99.90;;;;;;5021313;28;20512;-65
2023/07/16 04:31:54;;;;;;;8.23;7.90;;;16.40;99.90;;;;;;5028850;28;20461;-65
2023/07/16 04:34:21;;;;;;;7.60;7.40;;;16.40;99.90;;;;;;5021046;28;20456;-64
2023/07/16 04:36:48;;;;;;;7.90;7.60;;;16.50;99.90;;;;;;5029005;28;20515;-65
2023/07/16 04:39:18;;;;;;;7.60;7.40;;;16.50;99.90;;;;;;5027150;28;20553;-67
2023/07/16 04:41:45;;;;;;;8.23;7.93;;;16.50;99.90;;;;;;5022486;28;20469;-66
2023/07/16 04:44:12;;;;;;;8.83;8.53;;;16.60;99.90;;;;;;5029396;28;20507;-66
2023/07/16 04:46:38;;;;;;;9.20;8.90;;;16.70;99.90;;;;;;5028337;28;20461;-66
2023/07/16 04:49:06;;;;;;;9.47;9.17;;;16.70;99.90;;;;;;5021639;28;20469;-65
2023/07/16 04:51:33;;;;;;;9.27;8.93;;;16.70;99.90;;;;;;5029230;28;20824;-67
2023/07/16 04:54:00;;;;;;;10.10;9.70;;;16.80;99.90;;;;;;5025992;28;20947;-66
2023/07/16 04:56:29;;;;;;;9.20;8.90;;;16.80;99.90;;;;;;5021660;28;20485;-66
2023/07/16 04:58:57;;;;;;;10.37;9.90;;;16.90;99.90;;;;;;5023853;28;20679;-67
2023/07/16 05:01:25;;;;;;;10.07;9.67;;;17.00;99.90;;;;;;5027605;28;20543;-67
2023/07/16 05:03:52;;;;;;;10.50;10.00;;;17.00;99.90;;;;;;5026285;28;20461;-66
2023/07/16 05:06:18;;;;;;;10.30;9.90;;;17.00;99.90;;;;;;5016339;28;20983;-64
2023/07/16 05:08:45;;;;;;;9.73;9.43;;;17.10;99.90;;;;;;5016279;28;20514;-65
2023/07/16 05:11:13;;;;;;;10.30;9.90;;;17.10;99.90;;;;;;5024649;28;20461;-66
2023/07/16 05:13:42;;;;;;;10.10;9.70;;;17.20;99.90;;;;;;5019497;28;20461;-66
2023/07/16 05:16:09;;;;;;;10.23;9.83;;;17.30;99.90;;;;;;5023303;28;21285;-67
2023/07/16 05:18:36;;;;;;;11.87;11.27;;;17.30;99.90;;;;;;5022901;28;21548;-67
2023/07/16 05:21:03;;;;;;;11.40;10.70;;;17.30;99.90;;;;;;5024378;28;20872;-67
2023/07/16 05:23:30;;;;;;;10.70;10.20;;;17.30;99.90;;;;;;5018089;28;20805;-66
2023/07/16 05:25:58;;;;;;;12.03;11.43;;;17.40;99.90;;;;;;5019775;28;20484;-66
2023/07/16 05:28:27;;;;;;;11.73;11.23;;;17.40;99.90;;;;;;5018490;28;20461;-67
2023/07/16 05:31:00;;;;;;;11.77;11.27;;;17.40;99.90;;;;;;5017612;28;20461;-65
2023/07/16 05:33:27;;;;;;;11.63;11.03;;;17.50;99.90;;;;;;5022505;28;20536;-66
2023/07/16 05:35:54;;;;;;;11.07;10.47;;;17.50;99.90;;;;;;5022050;28;20468;-67
2023/07/16 05:38:21;;;;;;;12.33;11.77;;;17.50;99.90;;;;;;5023643;28;20582;-66
2023/07/16 05:40:47;;;;;;;12.43;11.50;;;17.60;99.90;;;;;;5019825;28;20531;-67
2023/07/16 05:43:14;;;;;;;13.60;12.80;;;17.60;99.90;;;;;;5013140;28;20475;-67
2023/07/16 05:45:42;;;;;;;11.00;10.60;;;17.70;99.90;;;;;;5020223;28;20484;-67
2023/07/16 05:48:10;;;;;;;12.20;11.60;;;17.70;99.90;;;;;;5024690;28;20959;-65
2023/07/16 05:50:37;;;;;;;12.50;12.00;;;17.80;99.90;;;;;;5024253;28;20523;-67
2023/07/16 05:53:05;;;;;;;17.13;13.43;;;17.80;99.90;;;;;;5021171;28;20476;-66
2023/07/16 05:55:32;;;;;;;12.53;12.00;;;17.80;99.90;;;;;;5022609;28;20485;-65
2023/07/16 05:57:59;;;;;;;12.30;11.60;;;17.90;99.90;;;;;;5014233;28;20495;-67
2023/07/16 06:00:27;;;;;;;13.10;12.40;;;17.90;99.90;;;;;;5023677;28;20461;-66
2023/07/16 06:02:53;;;;;;;13.87;12.70;;;18.00;99.90;;;;;;5022495;28;20464;-66
2023/07/16 06:05:22;;;;;;;12.60;11.93;;;18.00;99.90;;;;;;5021248;28;20468;-66
2023/07/16 06:07:49;;;;;;;12.40;11.80;;;18.00;99.90;;;;;;5021078;28;20550;-66
2023/07/16 06:10:16;;;;;;;14.70;13.67;;;18.00;99.90;;;;;;5018413;28;20471;-67
2023/07/16 06:12:44;;;;;;;13.43;12.33;;;18.10;99.90;;;;;;5010084;28;20531;-66
2023/07/16 06:15:11;;;;;;;13.57;12.77;;;18.10;99.90;;;;;;5016921;28;20604;-68
2023/07/16 06:17:38;;;;;;;14.03;13.13;;;18.10;99.90;;;;;;5019877;28;20492;-66
2023/07/16 06:20:07;;;;;;;13.10;12.17;;;18.10;99.90;;;;;;5021326;28;20889;-67
2023/07/16 06:22:49;;;;;;;12.37;11.87;;;18.10;99.90;;;;;;5022781;28;20493;-66
2023/07/16 06:25:17;;;;;;;12.77;12.17;;;18.20;99.90;;;;;;5022884;28;20821;-66
2023/07/16 06:27:44;;;;;;;12.50;12.00;;;18.20;99.90;;;;;;5016090;28;20465;-67
2023/07/16 06:30:11;;;;;;;13.90;13.17;;;18.20;99.90;;;;;;5012156;28;20517;-67
2023/07/16 06:32:37;;;;;;;13.60;12.70;;;18.20;99.90;;;;;;5018928;28;20464;-67
2023/07/16 06:35:05;;;;;;;12.47;11.77;;;18.30;99.90;;;;;;5016213;28;20465;-67
2023/07/16 06:37:32;;;;;;;13.27;12.67;;;18.30;99.90;;;;;;5022000;28;20586;-67
2023/07/16 06:40:00;;;;;;;14.70;13.60;;;18.30;99.90;;;;;;5014888;28;20591;-67
2023/07/16 06:42:27;;;;;;;14.17;13.17;;;18.30;99.90;;;;;;5014877;28;20477;-67
2023/07/16 06:44:55;;;;;;;13.10;12.50;;;18.30;99.90;;;;;;5018859;28;20531;-67
2023/07/16 06:47:22;;;;;;;12.90;12.30;;;18.30;99.90;;;;;;5018452;28;20472;-67
2023/07/16 06:49:50;;;;;;;15.30;14.20;;;18.50;99.90;;;;;;5025247;28;20966;-66
2023/07/16 06:52:20;;;;;;;14.07;13.13;;;18.60;99.90;;;;;;5021943;28;20548;-68
2023/07/16 06:54:50;;;;;;;13.53;12.83;;;18.60;99.90;;;;;;5014301;28;20564;-67
2023/07/16 06:57:19;;;;;;;14.40;13.50;;;18.70;99.90;;;;;;5017288;28;20485;-67
2023/07/16 06:59:45;;;;;;;14.73;13.80;;;18.70;99.90;;;;;;5014995;28;20465;-67
2023/07/16 07:02:13;;;;;;;13.67;13.07;;;18.60;99.90;;;;;;5024970;28;20467;-66
2023/07/16 07:04:40;;;;;;;15.80;14.90;;;18.60;99.90;;;;;;5013107;28;20859;-67
2023/07/16 07:07:07;;;;;;;14.43;13.50;;;18.60;99.90;;;;;;5020698;28;20827;-66
2023/07/16 07:09:35;;;;;;;14.50;13.43;;;18.60;99.90;;;;;;5021704;28;20814;-67
2023/07/16 07:12:04;;;;;;;15.30;14.17;;;18.80;99.90;;;;;;5015079;28;20560;-66
2023/07/16 07:14:33;;;;;;;14.93;13.73;;;18.70;99.90;;;;;;5026298;28;20464;-68
2023/07/16 07:17:01;;;;;;;15.73;14.40;;;18.80;99.90;;;;;;5025941;28;20484;-66
2023/07/16 07:19:29;;;;;;;16.17;15.27;;;18.90;99.90;;;;;;5027790;28;20496;-66
2023/07/16 07:21:55;;;;;;;12.83;12.23;;;18.80;99.90;;;;;;5016247;28;20561;-67
2023/07/16 07:24:22;;;;;;;12.73;12.13;;;18.90;99.90;;;;;;5021664;28;20472;-67
2023/07/16 07:26:49;;;;;;;13.87;12.87;;;19.00;99.90;;;;;;5023369;28;20465;-66
2023/07/16 07:29:16;;;;;;;13.53;12.63;;;19.10;99.90;;;;;;5017353;28;20460;-67
2023/07/16 07:31:44;;;;;;;12.03;11.53;;;19.20;99.90;;;;;;5017099;28;20524;-67
2023/07/16 07:34:11;;;;;;;12.13;11.63;;;19.20;99.90;;;;;;5024326;28;20538;-67
2023/07/16 07:36:39;;;;;;;13.03;11.80;;;19.40;99.90;;;;;;5024443;28;20515;-66
2023/07/16 07:39:05;;;;;;;11.63;11.23;;;19.60;99.90;;;;;;5015274;28;20495;-67
2023/07/16 07:41:33;;;;;;;13.20;12.50;;;19.60;99.90;;;;;;5028855;28;20492;-68
2023/07/16 07:44:00;;;;;;;14.90;13.63;;;19.70;99.90;;;;;;5016243;28;20460;-66
2023/07/16 07:46:27;;;;;;;14.80;13.90;;;19.60;99.90;;;;;;5015137;28;20460;-67
2023/07/16 07:48:56;;;;;;;14.13;13.13;;;19.40;99.90;;;;;;5022000;28;20462;-66
2023/07/16 07:51:24;;;;;;;14.63;13.60;;;19.40;99.90;;;;;;5022112;28;20841;-66
2023/07/16 07:53:50;;;;;;;13.90;13.10;;;19.40;99.90;;;;;;5026244;28;21038;-66
2023/07/16 07:56:17;;;;;;;15.13;14.03;;;19.60;99.90;;;;;;5023787;28;20550;-67
2023/07/16 07:58:45;;;;;;;13.93;12.90;;;19.50;99.90;;;;;;5029395;28;20850;-68
2023/07/16 08:01:11;;;;;;;17.53;15.37;;;19.50;99.90;;;;;;5026122;28;20472;-66
2023/07/16 08:03:38;;;;;;;15.50;14.07;;;19.50;99.90;;;;;;5028407;28;20466;-65
2023/07/16 08:06:06;;;;;;;14.77;13.87;;;19.40;99.90;;;;;;5018537;28;20457;-67
2023/07/16 08:08:33;;;;;;;13.87;12.43;;;19.50;99.90;;;;;;5028141;28;20811;-67
2023/07/16 08:11:00;;;;;;;13.17;12.57;;;19.80;99.90;;;;;;5025709;28;20477;-65
2023/07/16 08:13:28;;;;;;;12.27;11.57;;;20.00;99.90;;;;;;5027602;28;21031;-66
2023/07/16 08:15:56;;;;;;;16.00;14.83;;;20.30;99.90;;;;;;5021950;28;20542;-65
2023/07/16 08:18:22;;;;;;;13.57;12.97;;;20.70;99.90;;;;;;5020068;28;20853;-67
2023/07/16 08:20:50;;;;;;;13.63;13.00;;;21.00;99.90;;;;;;5015912;28;20457;-66
2023/07/16 08:23:18;;;;;;;13.00;12.50;;;21.50;99.90;;;;;;5026382;28;20469;-66
2023/07/16 08:25:46;;;;;;;15.50;14.40;;;22.20;99.90;;;;;;5026485;28;20488;-65
2023/07/16 08:28:12;;;;;;;15.17;14.17;;;22.80;99.90;;;;;;5022333;28;20809;-67
2023/07/16 08:30:39;;;;;;;16.30;14.93;;;22.70;99.90;;;;;;5025667;28;20461;-67
2023/07/16 08:33:06;;;;;;;16.37;15.37;;;22.30;99.90;;;;;;5023389;28;20806;-66
2023/07/16 08:35:34;;;;;;;14.80;14.10;;;22.20;99.90;;;;;;5026045;28;21153;-65
2023/07/16 08:38:01;;;;;;;16.57;15.07;;;21.60;99.90;;;;;;5028255;28;20849;-65
2023/07/16 08:40:29;;;;;;;15.27;14.27;;;22.40;99.90;;;;;;5020891;28;21030;-65
2023/07/16 08:42:58;;;;;;;14.73;14.00;;;22.60;99.90;;;;;;5019517;28;21022;-68
2023/07/16 08:45:29;;;;;;;14.70;14.00;;;22.50;99.90;;;;;;5020612;28;20479;-66
2023/07/16 08:47:56;;;;;;;14.37;13.57;;;22.30;99.90;;;;;;5020842;28;20441;-66
2023/07/16 08:50:23;;;;;;;15.33;14.43;;;22.10;99.90;;;;;;5026091;28;20518;-67
2023/07/16 08:52:51;;;;;;;15.50;14.00;;;22.10;99.90;;;;;;5018165;28;20483;-66
2023/07/16 08:55:19;;;;;;;14.37;13.67;;;22.40;99.90;;;;;;5018422;28;20461;-66
2023/07/16 08:57:48;;;;;;;15.67;14.77;;;22.50;99.90;;;;;;5022525;28;20472;-67
2023/07/16 09:00:16;;;;;;;16.23;15.33;;;22.90;99.90;;;;;;5015182;28;20465;-67
2023/07/16 09:02:43;;;;;;;14.87;14.13;;;23.30;99.90;;;;;;5021310;28;20464;-67
2023/07/16 09:05:10;;;;;;;15.20;14.40;;;23.60;99.90;;;;;;5023015;28;20464;-68
2023/07/16 09:07:38;;;;;;;15.30;14.50;;;23.30;99.90;;;;;;5016639;28;20464;-67
2023/07/16 09:10:07;;;;;;;15.67;14.80;;;23.20;99.90;;;;;;5019799;28;20994;-67
2023/07/16 09:12:33;;;;;;;15.00;14.13;;;22.90;99.90;;;;;;5014151;28;20468;-66
2023/07/16 09:15:02;;;;;;;14.13;13.40;;;22.80;99.90;;;;;;5013101;28;20497;-67
2023/07/16 09:17:29;;;;;;;16.00;14.57;;;22.60;99.90;;;;;;5012125;28;21161;-67
2023/07/16 09:19:57;;;;;;;15.00;14.10;;;23.00;99.90;;;;;;5019244;28;20493;-67
2023/07/16 09:22:24;;;;;;;17.03;15.60;;;23.40;99.90;;;;;;5014142;28;20474;-67
2023/07/16 09:24:51;;;;;;;14.90;14.20;;;23.10;99.90;;;;;;5022220;28;20508;-68
2023/07/16 09:27:18;;;;;;;16.80;15.77;;;22.90;99.90;;;;;;5025068;28;20472;-67
2023/07/16 09:29:46;;;;;;;14.43;13.80;;;22.40;99.90;;;;;;5017810;28;20468;-67
2023/07/16 09:32:16;;;;;;;14.07;13.47;;;22.70;99.90;;;;;;5023278;28;20472;-68
2023/07/16 09:34:43;;;;;;;14.20;13.53;;;23.20;99.90;;;;;;5024907;28;20464;-68
2023/07/16 09:37:10;;;;;;;13.87;13.27;;;23.40;99.90;;;;;;5027574;28;20519;-68
2023/07/16 09:39:38;;;;;;;15.07;14.27;;;24.00;99.90;;;;;;5017103;28;20504;-67
2023/07/16 09:42:07;;;;;;;14.80;14.10;;;24.20;99.90;;;;;;5018834;28;21058;-67
2023/07/16 09:44:34;;;;;;;16.30;15.30;;;24.50;99.90;;;;;;5023081;28;20468;-68
2023/07/16 09:47:01;;;;;;;15.20;14.40;;;24.80;99.90;;;;;;5026841;28;20567;-68
2023/07/16 09:49:31;;;;;;;15.37;14.73;;;24.80;99.90;;;;;;5020830;28;20474;-68
2023/07/16 09:51:58;;;;;;;13.57;13.07;;;25.60;99.90;;;;;;5026726;28;20888;-67
2023/07/16 09:54:27;;;;;;;13.83;13.17;;;25.70;99.90;;;;;;5018663;28;20461;-67
2023/07/16 09:56:58;;;;;;;15.97;15.10;;;25.60;99.90;;;;;;5024870;28;20572;-69
2023/07/16 09:59:28;;;;;;;14.93;14.23;;;25.00;99.90;;;;;;5026906;28;20492;-68
2023/07/16 10:01:56;;;;;;;15.77;14.80;;;25.30;99.90;;;;;;5021875;28;20980;-68
2023/07/16 10:04:23;;;;;;;15.87;15.17;;;25.70;99.90;;;;;;5013027;28;20885;-68
2023/07/16 10:06:56;;;;;;;16.10;14.87;;;25.40;99.90;;;;;;5020542;28;20473;-67
2023/07/16 10:09:33;;;;;;;14.20;13.60;;;24.90;99.90;;;;;;5020870;28;20469;-68
2023/07/16 10:12:26;;;;;;;16.10;14.90;;;24.60;99.90;;;;;;5025469;28;20474;-67
2023/07/16 10:14:56;;;;;;;15.90;14.90;;;24.90;99.90;;;;;;5029209;28;20482;-68
2023/07/16 10:17:24;;;;;;;14.63;13.80;;;24.60;99.90;;;;;;5024500;28;20544;-68
2023/07/16 10:19:52;;;;;;;14.63;14.03;;;24.40;99.90;;;;;;5026566;28;20495;-68
2023/07/16 10:22:32;;;;;;;15.30;14.60;;;24.80;99.90;;;;;;5017514;28;20472;-67
2023/07/16 10:24:59;;;;;;;15.27;14.57;;;25.30;99.90;;;;;;5019400;28;20474;-68
2023/07/16 10:27:31;;;;;;;16.40;15.10;;;25.10;99.90;;;;;;5023636;28;20458;-67
2023/07/16 10:29:58;;;;;;;16.40;15.43;;;24.90;99.90;;;;;;5019472;28;20458;-68
2023/07/16 10:32:28;;;;;;;16.60;15.70;;;24.60;99.90;;;;;;5020178;28;20530;-67
2023/07/16 10:34:55;;;;;;;15.83;15.07;;;24.60;99.90;;;;;;5012052;28;20987;-68
2023/07/16 10:37:24;;;;;;;16.07;14.97;;;24.30;99.90;;;;;;5015293;28;20468;-68
2023/07/16 10:39:53;;;;;;;15.30;14.60;;;24.30;99.90;;;;;;5016529;28;20484;-68
2023/07/16 10:42:22;;;;;;;16.40;15.33;;;25.40;99.90;;;;;;5020777;28;20458;-67
2023/07/16 10:44:52;;;;;;;16.40;15.43;;;25.20;99.90;;;;;;5026481;28;20472;-67
2023/07/16 10:47:21;;;;;;;15.77;14.90;;;25.40;99.90;;;;;;5034522;28;20464;-67
2023/07/16 10:49:48;;;;;;;16.10;15.20;;;25.60;99.90;;;;;;5033934;28;20502;-68
2023/07/16 10:52:15;;;;;;;15.00;14.40;;;25.60;99.90;;;;;;5015876;28;20522;-66
2023/07/16 10:54:43;;;;;;;14.43;13.83;;;25.30;99.90;;;;;;5022481;28;20464;-67
2023/07/16 10:57:11;;;;;;;14.73;14.13;;;25.40;99.90;;;;;;5029633;28;20480;-67
2023/07/16 10:59:40;;;;;;;14.83;14.23;;;25.00;99.90;;;;;;5026208;28;20621;-67
2023/07/16 11:02:11;;;;;;;16.33;15.53;;;25.40;99.90;;;;;;5025344;28;21195;-67
2023/07/16 11:04:38;;;;;;;15.60;14.80;;;25.10;99.90;;;;;;5023709;28;20883;-67
2023/07/16 11:07:08;;;;;;;15.77;14.97;;;25.30;99.90;;;;;;5030500;28;20483;-68
2023/07/16 11:09:35;;;;;;;17.27;15.93;;;24.80;99.90;;;;;;5015202;28;21005;-67
2023/07/16 11:12:10;;;;;;;14.90;14.20;;;24.30;99.90;;;;;;5002992;28;20513;-67
2023/07/16 11:14:38;;;;;;;18.87;15.00;;;24.50;99.90;;;;;;5013982;28;20464;-67
2023/07/16 11:17:09;;;;;;;15.90;15.10;;;24.80;99.90;;;;;;5014459;28;20465;-67
2023/07/16 11:19:36;;;;;;;16.50;15.50;;;25.10;99.90;;;;;;5024231;28;20481;-67
2023/07/16 11:22:04;;;;;;;16.23;15.43;;;25.50;99.90;;;;;;5014014;28;20558;-66
2023/07/16 11:24:38;;;;;;;15.40;14.70;;;25.80;99.90;;;;;;5024746;28;20849;-67
2023/07/16 11:27:06;;;;;;;15.70;15.00;;;25.50;99.90;;;;;;5028135;28;20468;-66
2023/07/16 11:29:37;;;;;;;15.80;15.10;;;25.00;99.90;;;;;;5013762;28;20468;-68
2023/07/16 11:32:05;;;;;;;14.53;13.93;;;24.70;99.90;;;;;;5027274;28;20459;-68
2023/07/16 11:34:32;;;;;;;16.00;15.30;;;24.70;99.90;;;;;;5021710;28;20464;-68
2023/07/16 11:37:10;;;;;;;15.83;15.03;;;25.10;99.90;;;;;;5015110;28;20472;-67
2023/07/16 11:39:37;;;;;;;14.63;14.03;;;25.40;99.90;;;;;;5018779;28;20483;-68
2023/07/16 11:42:04;;;;;;;15.20;14.50;;;25.40;99.90;;;;;;5017677;28;20461;-67
2023/07/16 11:44:37;;;;;;;16.47;15.53;;;25.60;99.90;;;;;;5018570;28;20994;-66
2023/07/16 11:47:04;;;;;;;16.87;15.20;;;25.50;99.90;;;;;;5020883;28;20949;-67
2023/07/16 11:49:31;;;;;;;18.97;14.43;;;25.50;99.90;;;;;;5021769;28;20459;-67
2023/07/16 11:51:59;;;;;;;14.43;13.83;;;25.10;99.90;;;;;;5023887;28;20516;-66
2023/07/16 11:54:26;;;;;;;14.50;13.70;;;25.00;99.90;;;;;;5025633;28;21001;-67
2023/07/16 11:56:53;;;;;;;14.50;13.90;;;24.90;99.90;;;;;;5023225;28;20486;-67
2023/07/16 11:59:20;;;;;;;15.30;14.47;;;25.00;99.90;;;;;;5027491;28;20516;-67
2023/07/16 12:01:49;;;;;;;15.73;14.73;;;25.30;99.90;;;;;;5027733;28;20493;-67
2023/07/16 12:04:18;;;;;;;15.10;14.50;;;25.50;99.90;;;;;;5019033;28;20489;-67
2023/07/16 12:06:45;;;;;;;15.20;14.47;;;25.20;99.90;;;;;;5013335;28;20468;-67
2023/07/16 12:09:13;;;;;;;14.40;13.70;;;25.20;99.90;;;;;;5011409;28;20471;-67
2023/07/16 12:11:39;;;;;;;14.90;14.10;;;25.10;99.90;;;;;;5024138;28;20481;-66
2023/07/16 12:14:07;;;;;;;25.20;15.57;;;25.20;99.90;;;;;;5010921;28;20469;-66
2023/07/16 12:16:34;;;;;;;15.10;14.40;;;25.40;99.90;;;;;;5012299;28;20575;-67
2023/07/16 12:19:02;;;;;;;14.40;13.60;;;25.40;99.90;;;;;;5009253;28;20471;-67
2023/07/16 12:21:29;;;;;;;16.37;15.47;;;25.30;99.90;;;;;;5011033;28;20471;-66
2023/07/16 12:23:56;;;;;;;14.57;13.87;;;25.30;99.90;;;;;;5012592;28;20492;-66
2023/07/16 12:26:22;;;;;;;15.03;14.33;;;25.20;99.90;;;;;;5023601;28;20468;-67
2023/07/16 12:28:50;;;;;;;15.60;14.90;;;25.30;99.90;;;;;;5020587;28;20731;-67
2023/07/16 12:31:17;;;;;;;14.13;13.53;;;25.90;99.90;;;;;;5022745;28;20550;-66
2023/07/16 12:33:45;;;;;;;15.10;14.20;;;25.50;99.90;;;;;;5021254;28;20539;-68
2023/07/16 12:36:14;;;;;;;14.93;14.13;;;25.50;99.90;;;;;;5019979;28;20568;-68
2023/07/16 12:38:41;;;;;;;16.57;15.50;;;25.70;99.90;;;;;;5024462;28;20472;-65
2023/07/16 12:41:08;;;;;;;15.03;14.33;;;26.10;99.90;;;;;;5015846;28;20496;-66